createdAt,value
2022-10-31T00:00:43.547Z,4.70
2022-10-31T00:01:43.522Z,4.80
2022-10-31T00:02:43.509Z,4.70
2022-10-31T00:03:43.435Z,4.20
2022-10-31T00:04:43.416Z,4.70
2022-10-31T00:05:43.407Z,4.40
2022-10-31T00:06:43.397Z,4.60
2022-10-31T00:07:43.369Z,4.60
2022-10-31T00:08:43.357Z,5.60
2022-10-31T00:09:43.327Z,5.00
2022-10-31T00:10:43.326Z,4.40
2022-10-31T00:11:43.308Z,4.50
2022-10-31T00:12:43.356Z,5.30
2022-10-31T00:13:43.276Z,4.90
2022-10-31T00:14:43.266Z,5.00
2022-10-31T00:15:43.249Z,5.10
2022-10-31T00:16:43.239Z,4.00
2022-10-31T00:17:43.240Z,4.30
2022-10-31T00:18:43.221Z,4.10
2022-10-31T00:19:43.189Z,4.50
2022-10-31T00:20:43.178Z,4.40
2022-10-31T00:21:43.169Z,4.50
2022-10-31T00:22:43.182Z,4.60
2022-10-31T00:23:43.131Z,4.90
2022-10-31T00:24:43.131Z,4.90
2022-10-31T00:25:43.109Z,5.20
2022-10-31T00:26:43.100Z,4.90
2022-10-31T00:27:43.111Z,4.90
2022-10-31T00:28:43.101Z,4.40
2022-10-31T00:29:43.060Z,4.40
2022-10-31T00:30:43.053Z,4.70
2022-10-31T00:31:43.042Z,3.90
2022-10-31T00:32:43.013Z,4.00
2022-10-31T00:33:43.010Z,4.10
2022-10-31T00:34:42.972Z,4.20
2022-10-31T00:35:42.950Z,3.90
2022-10-31T00:36:42.926Z,3.90
2022-10-31T00:37:42.893Z,4.50
2022-10-31T00:38:42.906Z,4.50
2022-10-31T00:39:42.873Z,4.50
2022-10-31T00:40:42.857Z,5.30
2022-10-31T00:41:42.847Z,3.90
2022-10-31T00:42:42.829Z,3.50
2022-10-31T00:43:42.824Z,3.60
2022-10-31T00:44:42.814Z,4.10
2022-10-31T00:45:42.805Z,4.40
2022-10-31T00:46:42.785Z,4.20
2022-10-31T00:47:42.764Z,3.80
2022-10-31T00:48:42.807Z,4.10
2022-10-31T00:49:42.755Z,3.70
2022-10-31T00:50:42.750Z,3.70
2022-10-31T00:51:42.735Z,3.70
2022-10-31T00:52:42.733Z,4.00
2022-10-31T00:53:42.727Z,4.30
2022-10-31T00:54:42.736Z,3.80
2022-10-31T00:55:42.698Z,3.90
2022-10-31T00:56:42.695Z,3.80
2022-10-31T00:57:42.667Z,3.70
2022-10-31T00:58:42.797Z,3.50
2022-10-31T00:59:42.655Z,3.60
2022-10-31T01:00:44.595Z,3.40
2022-10-31T01:01:42.654Z,3.60
2022-10-31T01:02:42.721Z,3.80
2022-10-31T01:03:42.587Z,3.50
2022-10-31T01:04:42.599Z,3.80
2022-10-31T01:05:42.581Z,3.80
2022-10-31T01:06:42.559Z,3.70
2022-10-31T01:07:42.549Z,3.90
2022-10-31T01:08:42.551Z,3.60
2022-10-31T01:09:42.530Z,3.30
2022-10-31T01:10:42.537Z,3.40
2022-10-31T01:11:42.500Z,3.50
2022-10-31T01:12:42.480Z,3.30
2022-10-31T01:13:42.474Z,3.30
2022-10-31T01:16:17.966Z,3.70
2022-10-31T01:17:17.910Z,3.60
2022-10-31T01:18:17.892Z,3.40
2022-10-31T01:19:17.829Z,3.60
2022-10-31T01:20:17.792Z,3.30
2022-10-31T01:21:17.740Z,3.40
2022-10-31T01:22:17.706Z,3.70
2022-10-31T01:23:17.661Z,3.50
2022-10-31T01:24:17.621Z,3.90
2022-10-31T01:25:17.601Z,3.50
2022-10-31T01:26:17.559Z,3.40
2022-10-31T01:27:17.521Z,3.30
2022-10-31T01:28:17.505Z,3.50
2022-10-31T01:29:17.451Z,3.20
2022-10-31T01:30:17.411Z,3.40
2022-10-31T01:31:17.360Z,3.00
2022-10-31T01:32:17.312Z,3.00
2022-10-31T01:33:17.280Z,3.20
2022-10-31T01:34:17.230Z,3.60
2022-10-31T01:35:17.204Z,3.30
2022-10-31T01:36:17.143Z,3.70
2022-10-31T01:37:17.125Z,3.40
2022-10-31T01:38:17.064Z,3.20
2022-10-31T01:39:17.046Z,3.40
2022-10-31T01:40:16.994Z,3.10
2022-10-31T01:41:16.953Z,3.60
2022-10-31T01:42:16.893Z,3.20
2022-10-31T01:43:16.927Z,3.50
2022-10-31T01:44:16.900Z,3.50
2022-10-31T01:45:16.773Z,3.40
2022-10-31T01:46:16.734Z,3.30
2022-10-31T01:47:16.684Z,3.20
2022-10-31T01:48:16.636Z,3.50
2022-10-31T01:49:16.605Z,3.50
2022-10-31T01:50:16.565Z,3.90
2022-10-31T01:51:16.527Z,3.40
2022-10-31T01:52:16.478Z,3.40
2022-10-31T01:53:16.447Z,3.40
2022-10-31T01:54:16.396Z,3.40
2022-10-31T01:55:16.377Z,3.30
2022-10-31T01:56:16.337Z,3.50
2022-10-31T01:57:16.288Z,3.20
2022-10-31T01:58:16.327Z,3.60
2022-10-31T01:59:16.230Z,3.50
2022-10-31T02:00:16.188Z,3.10
2022-10-31T02:01:16.271Z,3.50
2022-10-31T02:02:16.198Z,3.30
2022-10-31T02:03:16.099Z,3.20
2022-10-31T02:04:16.066Z,3.30
2022-10-31T02:05:16.016Z,3.40
2022-10-31T02:06:16.017Z,3.50
2022-10-31T02:07:15.951Z,3.50
2022-10-31T02:08:15.919Z,3.50
2022-10-31T02:09:15.877Z,4.00
2022-10-31T02:10:15.841Z,3.50
2022-10-31T02:11:15.801Z,3.30
2022-10-31T02:12:15.770Z,3.20
2022-10-31T02:13:15.807Z,3.20
2022-10-31T02:14:15.681Z,3.10
2022-10-31T02:15:15.630Z,3.30
2022-10-31T02:16:15.601Z,3.10
2022-10-31T02:17:15.582Z,3.10
2022-10-31T02:18:15.533Z,3.80
2022-10-31T02:19:15.462Z,3.80
2022-10-31T02:20:15.448Z,3.20
2022-10-31T02:21:15.391Z,3.30
2022-10-31T02:22:15.382Z,3.20
2022-10-31T02:23:15.314Z,3.40
2022-10-31T02:24:15.291Z,3.30
2022-10-31T02:25:15.262Z,3.30
2022-10-31T02:26:15.202Z,2.80
2022-10-31T02:27:15.175Z,2.90
2022-10-31T02:28:15.169Z,2.90
2022-10-31T02:29:15.074Z,3.20
2022-10-31T02:30:15.056Z,3.60
2022-10-31T02:31:15.012Z,2.70
2022-10-31T02:32:14.974Z,3.00
2022-10-31T02:33:14.936Z,2.90
2022-10-31T02:34:14.883Z,3.20
2022-10-31T02:35:14.854Z,3.00
2022-10-31T02:36:14.815Z,3.00
2022-10-31T02:37:14.766Z,3.30
2022-10-31T02:38:14.736Z,3.30
2022-10-31T02:39:14.686Z,3.10
2022-10-31T02:40:14.654Z,3.60
2022-10-31T02:41:14.605Z,3.40
2022-10-31T02:42:14.575Z,3.60
2022-10-31T02:44:14.488Z,3.10
2022-10-31T02:45:14.438Z,3.30
2022-10-31T02:46:14.411Z,3.20
2022-10-31T02:47:14.368Z,3.20
2022-10-31T02:48:14.336Z,2.90
2022-10-31T02:49:14.282Z,3.30
2022-10-31T02:50:14.240Z,2.90
2022-10-31T02:51:14.219Z,3.10
2022-10-31T02:52:14.186Z,2.90
2022-10-31T02:53:14.148Z,3.20
2022-10-31T02:54:14.099Z,2.80
2022-10-31T02:55:14.070Z,2.90
2022-10-31T02:56:14.041Z,3.20
2022-10-31T02:57:14.000Z,3.10
2022-10-31T02:58:14.052Z,3.20
2022-10-31T02:59:13.930Z,3.30
2022-10-31T03:00:13.883Z,3.00
2022-10-31T03:01:13.909Z,3.50
2022-10-31T03:02:13.982Z,3.60
2022-10-31T03:03:13.762Z,3.40
2022-10-31T03:04:13.730Z,3.30
2022-10-31T03:05:13.713Z,4.20
2022-10-31T03:06:13.643Z,3.30
2022-10-31T03:07:13.609Z,3.30
2022-10-31T03:08:13.581Z,3.10
2022-10-31T03:09:13.550Z,3.40
2022-10-31T03:10:13.492Z,3.20
2022-10-31T03:11:13.452Z,3.30
2022-10-31T03:12:13.412Z,3.20
2022-10-31T03:13:13.508Z,3.10
2022-10-31T03:14:13.347Z,3.10
2022-10-31T03:15:13.296Z,3.00
2022-10-31T03:16:13.250Z,3.40
2022-10-31T03:17:13.205Z,3.20
2022-10-31T03:18:13.165Z,2.90
2022-10-31T03:19:13.153Z,3.20
2022-10-31T03:20:13.093Z,2.80
2022-10-31T03:21:13.057Z,3.20
2022-10-31T03:22:13.005Z,2.80
2022-10-31T03:23:12.985Z,2.80
2022-10-31T03:24:12.943Z,3.10
2022-10-31T03:25:12.924Z,3.40
2022-10-31T03:26:12.877Z,3.20
2022-10-31T03:27:12.847Z,3.20
2022-10-31T03:28:12.842Z,3.30
2022-10-31T03:29:12.761Z,2.90
2022-10-31T03:30:12.735Z,3.20
2022-10-31T03:31:12.684Z,3.00
2022-10-31T03:32:12.640Z,2.80
2022-10-31T03:33:12.605Z,2.70
2022-10-31T03:34:12.564Z,3.20
2022-10-31T03:35:12.557Z,3.30
2022-10-31T03:36:12.496Z,2.90
2022-10-31T03:37:12.458Z,3.10
2022-10-31T03:38:12.427Z,3.00
2022-10-31T03:39:12.388Z,2.90
2022-10-31T03:40:12.359Z,3.00
2022-10-31T03:41:12.318Z,2.80
2022-10-31T03:42:12.298Z,3.00
2022-10-31T03:43:12.326Z,2.70
2022-10-31T03:44:12.229Z,2.70
2022-10-31T03:45:12.201Z,3.40
2022-10-31T03:46:12.129Z,3.40
2022-10-31T03:47:12.121Z,3.00
2022-10-31T03:48:12.077Z,3.00
2022-10-31T03:49:12.031Z,3.40
2022-10-31T03:50:12.001Z,3.60
2022-10-31T03:51:11.971Z,2.80
2022-10-31T03:52:11.931Z,3.00
2022-10-31T03:53:11.892Z,2.80
2022-10-31T03:54:11.864Z,3.20
2022-10-31T03:55:11.844Z,2.70
2022-10-31T03:56:11.793Z,2.80
2022-10-31T03:57:11.773Z,3.10
2022-10-31T03:58:11.835Z,3.00
2022-10-31T03:59:11.704Z,2.70
2022-10-31T04:00:11.664Z,3.00
2022-10-31T04:01:11.766Z,2.70
2022-10-31T04:02:11.740Z,2.70
2022-10-31T04:03:11.595Z,3.30
2022-10-31T04:04:11.575Z,3.00
2022-10-31T04:05:11.525Z,3.00
2022-10-31T04:06:11.505Z,3.00
2022-10-31T04:07:11.465Z,3.30
2022-10-31T04:08:11.446Z,2.50
2022-10-31T04:09:11.404Z,3.00
2022-10-31T04:10:11.367Z,2.60
2022-10-31T04:11:11.361Z,2.90
2022-10-31T04:12:11.310Z,2.80
2022-10-31T04:13:11.352Z,3.00
2022-10-31T04:14:11.245Z,2.70
2022-10-31T04:15:11.224Z,2.90
2022-10-31T04:16:14.226Z,3.10
2022-10-31T04:17:12.166Z,3.00
2022-10-31T04:18:11.116Z,3.00
2022-10-31T04:19:11.076Z,2.90
2022-10-31T04:20:11.036Z,3.20
2022-10-31T04:21:11.015Z,3.40
2022-10-31T04:22:10.986Z,3.70
2022-10-31T04:23:14.613Z,3.30
2022-10-31T04:24:10.898Z,4.10
2022-10-31T04:25:10.869Z,3.40
2022-10-31T04:26:10.840Z,2.90
2022-10-31T04:27:10.811Z,2.70
2022-10-31T04:28:10.828Z,3.10
2022-10-31T04:29:10.738Z,2.90
2022-10-31T04:30:10.699Z,3.30
2022-10-31T04:31:10.671Z,2.90
2022-10-31T04:32:10.641Z,3.10
2022-10-31T04:33:10.619Z,3.20
2022-10-31T04:34:10.561Z,2.90
2022-10-31T04:35:10.540Z,3.10
2022-10-31T04:36:10.500Z,3.40
2022-10-31T04:37:10.472Z,3.00
2022-10-31T04:38:10.428Z,2.90
2022-10-31T04:39:10.389Z,3.40
2022-10-31T04:40:10.341Z,3.40
2022-10-31T04:41:10.311Z,3.60
2022-10-31T04:42:10.293Z,3.10
2022-10-31T04:43:10.353Z,3.20
2022-10-31T04:44:10.202Z,3.20
2022-10-31T04:45:10.172Z,3.00
2022-10-31T04:46:10.134Z,3.20
2022-10-31T04:47:10.112Z,3.00
2022-10-31T04:48:10.085Z,2.90
2022-10-31T04:49:10.032Z,3.10
2022-10-31T04:50:09.993Z,2.90
2022-10-31T04:51:09.976Z,3.50
2022-10-31T04:52:09.943Z,3.80
2022-10-31T04:53:09.923Z,3.50
2022-10-31T04:54:09.877Z,3.40
2022-10-31T04:55:09.836Z,3.50
2022-10-31T04:56:09.792Z,3.70
2022-10-31T04:57:09.763Z,3.70
2022-10-31T04:58:09.788Z,3.60
2022-10-31T04:59:09.695Z,3.60
2022-10-31T05:00:09.643Z,3.10
2022-10-31T05:01:09.730Z,3.60
2022-10-31T05:02:09.753Z,3.10
2022-10-31T05:03:09.555Z,3.10
2022-10-31T05:04:09.495Z,2.90
2022-10-31T05:05:09.461Z,3.60
2022-10-31T05:06:09.425Z,2.70
2022-10-31T05:07:09.386Z,3.40
2022-10-31T05:08:09.347Z,3.20
2022-10-31T05:09:09.336Z,3.70
2022-10-31T05:10:09.287Z,3.00
2022-10-31T05:11:09.252Z,3.20
2022-10-31T05:12:09.223Z,3.10
2022-10-31T05:13:09.225Z,2.90
2022-10-31T05:14:09.148Z,3.20
2022-10-31T05:15:09.128Z,3.50
2022-10-31T05:16:09.088Z,3.50
2022-10-31T05:17:09.068Z,3.50
2022-10-31T05:18:09.037Z,2.80
2022-10-31T05:19:09.018Z,3.20
2022-10-31T05:20:09.008Z,2.90
2022-10-31T05:21:08.960Z,3.30
2022-10-31T05:22:08.929Z,3.40
2022-10-31T05:23:08.889Z,3.10
2022-10-31T05:24:08.860Z,3.00
2022-10-31T05:25:08.847Z,3.90
2022-10-31T05:26:08.789Z,2.90
2022-10-31T05:27:08.771Z,3.10
2022-10-31T05:28:08.730Z,3.40
2022-10-31T05:29:08.701Z,3.50
2022-10-31T05:30:08.701Z,3.70
2022-10-31T05:31:08.652Z,3.70
2022-10-31T05:32:08.629Z,3.70
2022-10-31T05:33:08.603Z,3.40
2022-10-31T05:34:08.570Z,3.20
2022-10-31T05:35:08.562Z,3.60
2022-10-31T05:36:08.512Z,3.50
2022-10-31T05:37:08.492Z,3.70
2022-10-31T05:38:08.450Z,3.40
2022-10-31T05:39:08.432Z,3.30
2022-10-31T05:40:08.581Z,3.20
2022-10-31T05:41:08.377Z,3.20
2022-10-31T05:42:08.332Z,3.40
2022-10-31T05:43:08.303Z,3.20
2022-10-31T05:44:08.273Z,3.50
2022-10-31T05:45:08.234Z,3.30
2022-10-31T05:46:08.221Z,3.40
2022-10-31T05:47:08.184Z,3.40
2022-10-31T05:48:08.154Z,3.50
2022-10-31T05:49:08.124Z,3.80
2022-10-31T05:50:08.092Z,3.50
2022-10-31T05:51:08.064Z,3.30
2022-10-31T05:52:08.015Z,3.40
2022-10-31T05:53:08.010Z,3.80
2022-10-31T05:54:10.768Z,3.30
2022-10-31T05:55:08.960Z,3.70
2022-10-31T05:56:07.931Z,3.40
2022-10-31T05:57:07.906Z,4.00
2022-10-31T05:58:07.857Z,3.80
2022-10-31T05:59:07.849Z,3.60
2022-10-31T06:00:07.817Z,3.70
2022-10-31T06:01:07.821Z,3.60
2022-10-31T06:02:07.772Z,3.40
2022-10-31T06:04:07.683Z,4.20
2022-10-31T06:05:07.759Z,3.90
2022-10-31T06:06:07.644Z,4.50
2022-10-31T06:07:07.610Z,3.80
2022-10-31T06:08:07.582Z,4.30
2022-10-31T06:09:07.551Z,3.80
2022-10-31T06:10:07.516Z,4.50
2022-10-31T06:11:07.497Z,4.50
2022-10-31T06:12:07.487Z,4.00
2022-10-31T06:13:07.440Z,3.60
2022-10-31T06:14:07.399Z,3.60
2022-10-31T06:15:07.389Z,3.40
2022-10-31T06:16:07.348Z,3.90
2022-10-31T06:17:07.319Z,4.00
2022-10-31T06:18:07.298Z,3.40
2022-10-31T06:19:07.240Z,3.50
2022-10-31T06:20:07.201Z,3.70
2022-10-31T06:21:07.180Z,3.80
2022-10-31T06:22:07.132Z,3.90
2022-10-31T06:23:07.130Z,3.90
2022-10-31T06:24:07.080Z,3.80
2022-10-31T06:25:07.063Z,4.50
2022-10-31T06:26:07.011Z,3.60
2022-10-31T06:27:07.002Z,4.50
2022-10-31T06:28:06.971Z,3.70
2022-10-31T06:29:06.937Z,3.90
2022-10-31T06:30:06.905Z,3.60
2022-10-31T06:31:06.872Z,4.40
2022-10-31T06:32:06.852Z,4.40
2022-10-31T06:33:06.826Z,4.80
2022-10-31T06:34:06.802Z,4.90
2022-10-31T06:35:06.775Z,5.60
2022-10-31T06:36:06.732Z,6.70
2022-10-31T06:37:06.723Z,6.80
2022-10-31T06:38:06.728Z,7.60
2022-10-31T06:39:06.664Z,8.40
2022-10-31T06:40:06.637Z,7.80
2022-10-31T06:41:06.602Z,9.40
2022-10-31T06:42:06.576Z,8.60
2022-10-31T06:43:06.543Z,9.80
2022-10-31T06:44:08.868Z,8.20
2022-10-31T06:45:06.496Z,7.40
2022-10-31T06:46:06.455Z,6.20
2022-10-31T06:47:06.425Z,5.50
2022-10-31T06:48:17.936Z,5.70
2022-10-31T06:49:07.396Z,5.90
2022-10-31T06:50:06.350Z,5.60
2022-10-31T06:51:06.331Z,5.30
2022-10-31T06:52:06.277Z,4.80
2022-10-31T06:53:06.272Z,5.60
2022-10-31T06:54:06.207Z,4.90
2022-10-31T06:55:06.196Z,5.50
2022-10-31T06:56:06.145Z,6.00
2022-10-31T06:57:06.108Z,5.00
2022-10-31T06:58:06.425Z,6.10
2022-10-31T06:59:06.047Z,5.90
2022-10-31T07:00:06.034Z,6.20
2022-10-31T07:01:06.084Z,5.60
2022-10-31T07:02:06.088Z,6.10
2022-10-31T07:03:05.940Z,6.90
2022-10-31T07:04:05.908Z,7.30
2022-10-31T07:05:05.887Z,7.30
2022-10-31T07:06:05.858Z,7.50
2022-10-31T07:07:05.809Z,8.10
2022-10-31T07:08:05.780Z,8.20
2022-10-31T07:09:05.747Z,8.10
2022-10-31T07:10:05.759Z,7.70
2022-10-31T07:11:05.700Z,7.60
2022-10-31T07:12:05.650Z,8.00
2022-10-31T07:13:05.633Z,8.40
2022-10-31T07:14:55.945Z,9.20
2022-10-31T07:15:55.914Z,9.20
2022-10-31T07:16:55.852Z,9.80
2022-10-31T07:17:55.795Z,9.50
2022-10-31T07:18:55.765Z,9.50
2022-10-31T07:19:55.726Z,9.70
2022-10-31T07:20:55.689Z,10.30
2022-10-31T07:21:55.626Z,10.50
2022-10-31T07:22:55.584Z,10.50
2022-10-31T07:23:55.535Z,10.50
2022-10-31T07:24:55.476Z,9.30
2022-10-31T07:25:55.428Z,9.20
2022-10-31T07:26:55.470Z,9.20
2022-10-31T07:27:55.335Z,9.00
2022-10-31T07:28:55.280Z,10.70
2022-10-31T07:29:55.234Z,10.20
2022-10-31T07:30:55.192Z,10.50
2022-10-31T07:31:55.161Z,10.80
2022-10-31T07:32:55.079Z,10.20
2022-10-31T07:33:55.029Z,10.00
2022-10-31T07:34:54.969Z,10.30
2022-10-31T07:35:54.928Z,10.20
2022-10-31T07:36:54.948Z,11.50
2022-10-31T07:37:54.858Z,10.30
2022-10-31T07:38:54.770Z,11.20
2022-10-31T07:39:54.729Z,11.60
2022-10-31T07:40:54.672Z,10.90
2022-10-31T07:41:54.601Z,10.40
2022-10-31T07:42:54.582Z,9.10
2022-10-31T07:43:54.508Z,9.10
2022-10-31T07:44:56.827Z,8.10
2022-10-31T07:45:54.416Z,7.40
2022-10-31T07:46:54.336Z,8.20
2022-10-31T07:47:54.303Z,7.80
2022-10-31T07:48:54.243Z,7.60
2022-10-31T07:49:54.170Z,7.80
2022-10-31T07:50:54.101Z,6.20
2022-10-31T07:51:54.043Z,6.50
2022-10-31T07:52:54.023Z,6.10
2022-10-31T07:53:53.941Z,6.10
2022-10-31T07:54:53.894Z,5.20
2022-10-31T07:55:53.835Z,5.60
2022-10-31T07:56:53.780Z,5.20
2022-10-31T07:57:53.724Z,5.00
2022-10-31T07:58:53.663Z,4.60
2022-10-31T07:59:53.586Z,5.20
2022-10-31T08:00:53.645Z,4.90
2022-10-31T08:01:53.474Z,4.60
2022-10-31T08:02:53.402Z,4.80
2022-10-31T08:03:53.344Z,4.70
2022-10-31T08:04:55.913Z,4.30
2022-10-31T08:05:54.176Z,5.40
2022-10-31T08:06:53.095Z,4.50
2022-10-31T08:07:53.028Z,4.80
2022-10-31T08:08:52.967Z,4.80
2022-10-31T08:09:52.867Z,4.80
2022-10-31T08:10:52.806Z,4.50
2022-10-31T08:11:52.717Z,4.70
2022-10-31T08:12:52.646Z,4.90
2022-10-31T08:13:52.591Z,4.70
2022-10-31T08:14:52.534Z,4.70
2022-10-31T08:15:52.427Z,5.10
2022-10-31T08:16:52.354Z,4.70
2022-10-31T08:17:52.281Z,4.90
2022-10-31T08:18:52.212Z,4.80
2022-10-31T08:19:52.119Z,4.80
2022-10-31T08:20:52.056Z,4.60
2022-10-31T08:21:51.963Z,4.90
2022-10-31T08:22:51.889Z,4.70
2022-10-31T08:23:51.810Z,5.00
2022-10-31T08:24:51.759Z,4.90
2022-10-31T08:25:51.660Z,4.20
2022-10-31T08:26:51.576Z,4.80
2022-10-31T08:27:51.492Z,4.60
2022-10-31T08:28:51.443Z,5.00
2022-10-31T08:29:51.371Z,5.00
2022-10-31T08:30:51.270Z,4.90
2022-10-31T08:31:51.171Z,5.00
2022-10-31T08:32:51.124Z,5.30
2022-10-31T08:33:51.014Z,4.90
2022-10-31T08:34:50.965Z,5.10
2022-10-31T08:35:50.852Z,4.70
2022-10-31T08:36:50.779Z,4.80
2022-10-31T08:37:50.676Z,4.40
2022-10-31T08:38:50.595Z,4.60
2022-10-31T08:39:50.513Z,4.50
2022-10-31T08:40:50.415Z,4.50
2022-10-31T08:41:50.341Z,4.40
2022-10-31T08:42:50.226Z,4.70
2022-10-31T08:43:50.127Z,4.50
2022-10-31T08:44:50.070Z,4.20
2022-10-31T08:45:49.951Z,4.20
2022-10-31T08:46:49.852Z,4.50
2022-10-31T08:47:49.746Z,4.90
2022-10-31T08:48:49.657Z,4.30
2022-10-31T08:49:49.568Z,4.30
2022-10-31T08:50:49.473Z,4.60
2022-10-31T08:51:49.359Z,4.00
2022-10-31T08:53:03.653Z,4.20
2022-10-31T08:53:50.164Z,4.00
2022-10-31T08:54:49.089Z,4.20
2022-10-31T08:55:48.984Z,4.50
2022-10-31T08:56:48.869Z,4.10
2022-10-31T08:57:48.777Z,4.50
2022-10-31T08:58:48.675Z,4.40
2022-10-31T08:59:48.561Z,4.10
2022-10-31T09:00:48.537Z,4.40
2022-10-31T09:01:48.381Z,4.60
2022-10-31T09:02:48.260Z,4.10
2022-10-31T09:03:48.151Z,4.00
2022-10-31T09:04:48.043Z,4.50
2022-10-31T09:05:47.980Z,4.10
2022-10-31T09:07:07.955Z,4.70
2022-10-31T09:07:48.714Z,4.40
2022-10-31T09:08:47.624Z,3.90
2022-10-31T09:09:47.513Z,4.60
2022-10-31T09:10:47.403Z,4.20
2022-10-31T09:11:47.294Z,4.10
2022-10-31T09:12:47.193Z,5.10
2022-10-31T09:13:47.074Z,4.40
2022-10-31T09:14:46.974Z,4.40
2022-10-31T09:15:46.867Z,4.60
2022-10-31T09:16:46.745Z,4.70
2022-10-31T09:17:46.634Z,4.40
2022-10-31T09:18:46.525Z,4.10
2022-10-31T09:19:46.427Z,4.50
2022-10-31T09:20:46.327Z,4.30
2022-10-31T09:21:46.199Z,4.70
2022-10-31T09:22:46.077Z,5.00
2022-10-31T09:23:46.238Z,5.00
2022-10-31T09:24:45.836Z,4.90
2022-10-31T09:25:50.207Z,4.70
2022-10-31T09:26:46.600Z,4.50
2022-10-31T09:27:45.477Z,4.90
2022-10-31T09:28:45.368Z,4.90
2022-10-31T09:29:45.230Z,5.10
2022-10-31T09:30:45.110Z,5.20
2022-10-31T09:31:45.266Z,5.40
2022-10-31T09:32:44.870Z,4.90
2022-10-31T09:33:44.739Z,4.40
2022-10-31T09:34:44.622Z,5.20
2022-10-31T09:35:44.503Z,4.80
2022-10-31T09:36:44.381Z,4.80
2022-10-31T09:37:44.240Z,5.00
2022-10-31T09:38:44.112Z,5.10
2022-10-31T09:39:43.993Z,4.80
2022-10-31T09:40:43.875Z,5.30
2022-10-31T09:41:43.769Z,5.30
2022-10-31T09:42:43.608Z,4.50
2022-10-31T09:43:43.476Z,5.20
2022-10-31T09:44:43.363Z,4.70
2022-10-31T09:45:43.219Z,5.20
2022-10-31T09:46:43.124Z,5.80
2022-10-31T09:47:42.956Z,5.40
2022-10-31T09:48:42.850Z,5.40
2022-10-31T09:49:42.772Z,5.80
2022-10-31T09:50:42.580Z,6.20
2022-10-31T09:51:42.440Z,5.20
2022-10-31T09:52:42.305Z,5.40
2022-10-31T09:53:42.156Z,5.10
2022-10-31T09:54:42.026Z,4.60
2022-10-31T09:55:41.904Z,5.80
2022-10-31T09:56:41.779Z,5.30
2022-10-31T09:57:41.660Z,5.30
2022-10-31T09:58:41.552Z,5.30
2022-10-31T09:59:41.350Z,4.50
2022-10-31T10:00:41.264Z,5.30
2022-10-31T10:01:41.239Z,5.20
2022-10-31T10:02:40.978Z,5.10
2022-10-31T10:03:40.810Z,5.00
2022-10-31T10:04:40.681Z,5.80
2022-10-31T10:05:40.539Z,5.50
2022-10-31T10:06:40.382Z,5.00
2022-10-31T10:07:40.226Z,5.10
2022-10-31T10:08:40.125Z,5.00
2022-10-31T10:09:39.943Z,5.20
2022-10-31T10:10:39.794Z,5.00
2022-10-31T10:11:39.659Z,5.10
2022-10-31T10:12:39.524Z,4.80
2022-10-31T10:13:39.403Z,5.00
2022-10-31T10:14:39.235Z,6.10
2022-10-31T10:15:39.074Z,5.50
2022-10-31T10:16:38.924Z,6.50
2022-10-31T10:17:38.786Z,5.20
2022-10-31T10:18:38.666Z,5.10
2022-10-31T10:19:38.479Z,5.30
2022-10-31T10:20:38.338Z,5.00
2022-10-31T10:21:38.186Z,5.40
2022-10-31T10:22:38.043Z,5.50
2022-10-31T10:23:37.876Z,5.10
2022-10-31T10:24:37.755Z,5.70
2022-10-31T10:25:37.595Z,5.10
2022-10-31T10:26:37.440Z,5.50
2022-10-31T10:27:37.318Z,5.30
2022-10-31T10:28:37.140Z,5.30
2022-10-31T10:29:36.994Z,4.50
2022-10-31T10:30:36.851Z,4.40
2022-10-31T10:31:36.686Z,4.40
2022-10-31T10:32:36.542Z,4.40
2022-10-31T10:33:36.384Z,3.90
2022-10-31T10:34:36.231Z,4.20
2022-10-31T10:35:36.078Z,5.50
2022-10-31T10:36:35.912Z,4.50
2022-10-31T10:37:35.753Z,4.50
2022-10-31T10:38:35.603Z,4.30
2022-10-31T10:39:35.468Z,4.10
2022-10-31T10:40:35.307Z,4.70
2022-10-31T10:41:35.142Z,4.30
2022-10-31T10:42:34.995Z,4.70
2022-10-31T10:43:34.855Z,4.10
2022-10-31T10:44:34.668Z,4.00
2022-10-31T10:45:34.540Z,4.20
2022-10-31T10:46:34.376Z,4.40
2022-10-31T10:47:34.221Z,4.10
2022-10-31T10:48:34.197Z,4.00
2022-10-31T10:49:33.881Z,4.00
2022-10-31T10:50:33.746Z,4.70
2022-10-31T10:51:54.655Z,4.20
2022-10-31T10:52:42.161Z,4.20
2022-10-31T10:53:34.260Z,4.00
2022-10-31T10:54:33.104Z,3.90
2022-10-31T10:55:32.961Z,3.80
2022-10-31T10:56:32.798Z,3.80
2022-10-31T10:57:32.633Z,3.90
2022-10-31T10:58:32.483Z,4.40
2022-10-31T10:59:32.302Z,4.00
2022-10-31T11:00:32.216Z,3.90
2022-10-31T11:01:31.986Z,4.20
2022-10-31T11:02:31.826Z,3.60
2022-10-31T11:03:31.651Z,3.30
2022-10-31T11:04:31.488Z,3.60
2022-10-31T11:05:31.333Z,3.50
2022-10-31T11:06:31.172Z,3.70
2022-10-31T11:07:30.991Z,4.00
2022-10-31T11:08:30.842Z,3.60
2022-10-31T11:09:30.674Z,3.40
2022-10-31T11:10:30.516Z,3.60
2022-10-31T11:11:30.353Z,3.90
2022-10-31T11:12:30.177Z,3.50
2022-10-31T11:13:30.006Z,3.50
2022-10-31T11:14:29.846Z,4.00
2022-10-31T11:15:29.706Z,3.20
2022-10-31T11:16:29.517Z,3.70
2022-10-31T11:17:29.339Z,3.80
2022-10-31T11:18:29.170Z,4.20
2022-10-31T11:19:28.987Z,3.40
2022-10-31T11:20:28.829Z,4.60
2022-10-31T11:21:28.685Z,3.50
2022-10-31T11:22:28.485Z,3.40
2022-10-31T11:23:28.321Z,4.20
2022-10-31T11:24:28.141Z,3.60
2022-10-31T11:25:27.978Z,3.70
2022-10-31T11:26:27.840Z,4.20
2022-10-31T11:27:27.636Z,4.50
2022-10-31T11:28:27.466Z,3.40
2022-10-31T11:29:27.287Z,3.60
2022-10-31T11:30:27.122Z,3.90
2022-10-31T11:31:26.962Z,3.50
2022-10-31T11:32:26.786Z,4.10
2022-10-31T11:33:26.603Z,3.80
2022-10-31T11:34:26.422Z,3.90
2022-10-31T11:35:26.277Z,3.40
2022-10-31T11:36:26.114Z,3.80
2022-10-31T11:37:25.885Z,4.00
2022-10-31T11:38:25.730Z,3.60
2022-10-31T11:39:25.547Z,3.50
2022-10-31T11:40:25.375Z,3.50
2022-10-31T11:41:25.198Z,4.10
2022-10-31T11:42:25.047Z,3.80
2022-10-31T11:43:24.848Z,3.30
2022-10-31T11:44:24.668Z,3.80
2022-10-31T11:45:24.500Z,3.70
2022-10-31T11:46:24.322Z,3.80
2022-10-31T11:47:24.150Z,4.00
2022-10-31T11:48:23.971Z,3.90
2022-10-31T11:49:23.788Z,3.50
2022-10-31T11:50:23.613Z,3.60
2022-10-31T11:51:23.432Z,3.90
2022-10-31T11:52:23.299Z,3.50
2022-10-31T11:53:23.090Z,3.20
2022-10-31T11:54:22.913Z,3.20
2022-10-31T11:55:22.743Z,2.90
2022-10-31T11:56:22.562Z,3.30
2022-10-31T11:57:22.394Z,3.40
2022-10-31T11:58:22.203Z,3.60
2022-10-31T11:59:22.028Z,3.30
2022-10-31T12:00:21.898Z,3.20
2022-10-31T12:01:21.685Z,3.10
2022-10-31T12:02:21.543Z,3.00
2022-10-31T12:03:21.338Z,3.30
2022-10-31T12:04:21.117Z,3.10
2022-10-31T12:05:20.947Z,3.50
2022-10-31T12:06:20.768Z,3.50
2022-10-31T12:07:20.584Z,3.20
2022-10-31T12:08:20.408Z,2.80
2022-10-31T12:09:20.228Z,3.40
2022-10-31T12:10:20.028Z,3.10
2022-10-31T12:11:19.850Z,3.50
2022-10-31T12:12:19.669Z,3.30
2022-10-31T12:13:19.486Z,3.30
2022-10-31T12:14:19.310Z,2.90
2022-10-31T12:15:19.116Z,3.10
2022-10-31T12:16:18.930Z,3.20
2022-10-31T12:17:18.763Z,2.80
2022-10-31T12:18:18.583Z,3.80
2022-10-31T12:19:18.415Z,3.40
2022-10-31T12:20:18.212Z,3.20
2022-10-31T12:21:18.023Z,3.30
2022-10-31T12:22:17.839Z,3.30
2022-10-31T12:23:17.663Z,3.10
2022-10-31T12:24:17.506Z,3.20
2022-10-31T12:25:17.293Z,3.10
2022-10-31T12:26:17.114Z,2.80
2022-10-31T12:27:16.931Z,2.50
2022-10-31T12:28:16.737Z,2.80
2022-10-31T12:29:16.588Z,2.40
2022-10-31T12:30:16.376Z,2.40
2022-10-31T12:31:16.190Z,2.70
2022-10-31T12:32:15.998Z,2.80
2022-10-31T12:33:15.820Z,2.60
2022-10-31T12:34:15.638Z,2.50
2022-10-31T12:35:15.432Z,2.30
2022-10-31T12:36:15.651Z,2.30
2022-10-31T12:37:15.082Z,2.50
2022-10-31T12:38:14.871Z,2.60
2022-10-31T12:39:14.692Z,2.30
2022-10-31T12:40:14.670Z,2.30
2022-10-31T12:41:14.311Z,2.20
2022-10-31T12:42:14.133Z,2.30
2022-10-31T12:43:13.955Z,2.40
2022-10-31T12:44:13.754Z,2.40
2022-10-31T12:45:13.585Z,2.50
2022-10-31T12:46:13.382Z,2.70
2022-10-31T12:47:13.181Z,2.50
2022-10-31T12:48:12.993Z,2.30
2022-10-31T12:49:12.816Z,2.20
2022-10-31T12:50:12.634Z,2.80
2022-10-31T12:51:12.417Z,2.90
2022-10-31T12:52:12.246Z,2.50
2022-10-31T12:53:12.072Z,2.40
2022-10-31T12:54:11.858Z,2.80
2022-10-31T12:55:11.686Z,2.50
2022-10-31T12:56:11.467Z,3.30
2022-10-31T12:57:11.287Z,2.50
2022-10-31T12:58:11.098Z,2.30
2022-10-31T12:59:10.916Z,2.50
2022-10-31T13:00:10.749Z,2.30
2022-10-31T13:01:10.700Z,2.30
2022-10-31T13:02:10.464Z,2.60
2022-10-31T13:03:10.180Z,2.50
2022-10-31T13:04:09.980Z,3.00
2022-10-31T13:05:09.791Z,2.60
2022-10-31T13:06:09.621Z,3.10
2022-10-31T13:07:09.421Z,3.50
2022-10-31T13:08:09.235Z,3.00
2022-10-31T13:09:09.063Z,2.80
2022-10-31T13:10:08.873Z,3.30
2022-10-31T13:11:08.681Z,2.90
2022-10-31T13:12:08.494Z,3.10
2022-10-31T13:13:08.323Z,3.80
2022-10-31T13:14:08.134Z,3.50
2022-10-31T13:15:07.972Z,3.30
2022-10-31T13:16:07.765Z,3.20
2022-10-31T13:17:07.586Z,3.20
2022-10-31T13:18:07.398Z,3.30
2022-10-31T13:19:07.219Z,3.40
2022-10-31T13:20:07.047Z,2.90
2022-10-31T13:21:06.856Z,3.20